createdAt,value
2022-10-19T00:01:21.718Z,101775.94
2022-10-19T00:03:57.652Z,101776.16
2022-10-19T00:06:38.997Z,101772.88
2022-10-19T00:09:13.839Z,101772.44
2022-10-19T00:11:44.240Z,101765.88
2022-10-19T00:14:20.330Z,101764.22
2022-10-19T00:16:52.385Z,101770.19
2022-10-19T00:19:24.230Z,101768.34
2022-10-19T00:24:27.315Z,101771.38
2022-10-19T00:26:53.922Z,101771.00
2022-10-19T00:29:20.652Z,101771.19
2022-10-19T00:31:50.947Z,101763.56
2022-10-19T00:34:18.049Z,101760.69
2022-10-19T00:36:45.040Z,101762.16
2022-10-19T00:39:13.316Z,101761.91
2022-10-19T00:41:45.524Z,101768.09
2022-10-19T00:44:12.075Z,101757.41
2022-10-19T00:46:48.742Z,101759.47
2022-10-19T00:49:28.394Z,101763.34
2022-10-19T00:52:04.576Z,101758.41
2022-10-19T00:54:36.396Z,101762.72
2022-10-19T00:57:05.921Z,101762.50
2022-10-19T00:59:42.919Z,101750.59
2022-10-19T01:02:09.517Z,101752.25
2022-10-19T01:04:44.547Z,101750.00
2022-10-19T01:07:11.828Z,101748.53
2022-10-19T01:09:38.368Z,101744.41
2022-10-19T01:12:19.668Z,101740.22
2022-10-19T01:15:11.858Z,101738.00
2022-10-19T01:17:38.284Z,101733.03
2022-10-19T01:20:42.723Z,101743.50
2022-10-19T01:23:31.603Z,101734.09
2022-10-19T01:26:18.676Z,101737.78
2022-10-19T01:29:04.017Z,101737.97
2022-10-19T01:31:49.072Z,101727.88
2022-10-19T01:34:34.520Z,101724.97
2022-10-19T01:37:10.018Z,101719.44
2022-10-19T01:39:46.407Z,101715.94
2022-10-19T01:42:36.944Z,101722.50
2022-10-19T01:45:09.676Z,101712.09
2022-10-19T01:47:42.432Z,101712.47
2022-10-19T01:50:23.503Z,101712.47
2022-10-19T01:52:51.568Z,101701.97
2022-10-19T01:55:19.899Z,101704.44
2022-10-19T01:57:52.182Z,101706.91
2022-10-19T02:00:25.543Z,101711.84
2022-10-19T02:02:54.657Z,101707.13
2022-10-19T02:05:26.900Z,101707.53
2022-10-19T02:07:58.525Z,101704.84
2022-10-19T02:10:26.022Z,101697.50
2022-10-19T02:12:55.404Z,101698.09
2022-10-19T02:15:25.928Z,101698.50
2022-10-19T02:17:59.765Z,101691.38
2022-10-19T02:20:28.123Z,101705.53
2022-10-19T02:22:54.968Z,101700.59
2022-10-19T02:25:23.865Z,101706.28
2022-10-19T02:27:54.023Z,101691.09
2022-10-19T02:30:22.544Z,101687.97
2022-10-19T02:32:50.119Z,101692.09
2022-10-19T02:35:19.545Z,101685.75
2022-10-19T02:37:50.558Z,101684.66
2022-10-19T02:40:17.474Z,101685.72
2022-10-19T02:43:03.751Z,101680.75
2022-10-19T02:45:37.572Z,101681.13
2022-10-19T02:48:17.576Z,101684.28
2022-10-19T02:50:45.339Z,101676.91
2022-10-19T02:53:11.869Z,101679.56
2022-10-19T02:58:09.490Z,101670.50
2022-10-19T03:00:36.411Z,101672.13
2022-10-19T03:03:05.976Z,101667.41
2022-10-19T03:05:32.524Z,101673.25
2022-10-19T03:08:05.150Z,101671.91
2022-10-19T03:10:32.014Z,101675.56
2022-10-19T03:12:58.691Z,101677.09
2022-10-19T03:15:31.590Z,101675.84
2022-10-19T03:18:06.909Z,101666.31
2022-10-19T03:20:36.480Z,101673.53
2022-10-19T03:23:03.109Z,101677.75
2022-10-19T03:25:30.822Z,101688.97
2022-10-19T03:27:57.413Z,101688.09
2022-10-19T03:30:23.946Z,101687.06
2022-10-19T03:32:50.648Z,101686.06
2022-10-19T03:35:28.331Z,101692.88
2022-10-19T03:37:54.882Z,101687.97
2022-10-19T03:40:21.489Z,101687.91
2022-10-19T03:42:52.431Z,101681.56
2022-10-19T03:45:20.432Z,101679.75
2022-10-19T03:47:50.037Z,101687.25
2022-10-19T03:50:22.541Z,101682.59
2022-10-19T03:52:49.752Z,101680.84
2022-10-19T03:55:17.387Z,101678.28
2022-10-19T03:57:46.181Z,101685.41
2022-10-19T04:00:13.317Z,101681.69
2022-10-19T04:02:40.059Z,101682.81
2022-10-19T04:05:07.290Z,101683.63
2022-10-19T04:07:34.060Z,101683.50
2022-10-19T04:10:00.687Z,101686.06
2022-10-19T04:12:28.460Z,101689.19
2022-10-19T04:14:57.921Z,101681.63
2022-10-19T04:17:25.720Z,101686.53
2022-10-19T04:19:52.331Z,101691.94
2022-10-19T04:22:19.005Z,101690.50
2022-10-19T04:24:51.468Z,101689.41
2022-10-19T04:27:18.202Z,101687.78
2022-10-19T04:29:45.678Z,101687.81
2022-10-19T04:32:12.226Z,101684.09
2022-10-19T04:34:40.048Z,101684.53
2022-10-19T04:37:06.827Z,101687.00
2022-10-19T04:39:33.518Z,101686.63
2022-10-19T04:42:00.112Z,101686.47
2022-10-19T04:44:30.158Z,101685.41
2022-10-19T04:46:58.368Z,101690.00
2022-10-19T04:49:25.079Z,101683.69
2022-10-19T04:51:51.669Z,101685.34
2022-10-19T04:54:18.307Z,101678.78
2022-10-19T04:56:45.282Z,101679.09
2022-10-19T04:59:12.052Z,101674.78
2022-10-19T05:01:41.301Z,101676.97
2022-10-19T05:04:11.669Z,101679.31
2022-10-19T05:06:38.304Z,101671.41
2022-10-19T05:09:04.795Z,101671.09
2022-10-19T05:11:31.312Z,101670.41
2022-10-19T05:13:57.766Z,101665.91
2022-10-19T05:16:40.876Z,101664.50
2022-10-19T05:19:07.456Z,101669.50
2022-10-19T05:21:34.057Z,101665.19
2022-10-19T05:24:00.652Z,101660.63
2022-10-19T05:26:29.104Z,101665.97
2022-10-19T05:28:59.446Z,101661.41
2022-10-19T05:31:31.287Z,101661.22
2022-10-19T05:33:58.475Z,101661.84
2022-10-19T05:36:36.746Z,101657.63
2022-10-19T05:39:12.553Z,101656.19
2022-10-19T05:41:39.376Z,101655.56
2022-10-19T05:44:06.406Z,101659.25
2022-10-19T05:46:33.727Z,101650.00
2022-10-19T05:49:00.693Z,101655.97
2022-10-19T05:51:28.360Z,101660.47
2022-10-19T05:53:58.468Z,101658.63
2022-10-19T05:56:28.289Z,101658.50
2022-10-19T05:58:59.985Z,101667.84
2022-10-19T06:01:27.838Z,101658.22
2022-10-19T06:03:56.766Z,101659.13
2022-10-19T06:06:23.969Z,101660.38
2022-10-19T06:08:51.577Z,101661.44
2022-10-19T06:11:23.164Z,101668.06
2022-10-19T06:13:58.195Z,101672.81
2022-10-19T06:16:26.618Z,101676.72
2022-10-19T06:18:54.428Z,101677.31
2022-10-19T06:21:25.114Z,101682.22
2022-10-19T06:23:58.860Z,101679.78
2022-10-19T06:26:26.554Z,101682.69
2022-10-19T06:28:56.546Z,101677.88
2022-10-19T06:31:23.007Z,101681.84
2022-10-19T06:33:49.803Z,101687.16
2022-10-19T06:36:19.751Z,101699.06
2022-10-19T06:38:47.276Z,101693.78
2022-10-19T06:41:14.201Z,101697.53
2022-10-19T06:43:42.941Z,101702.72
2022-10-19T06:46:25.743Z,101695.59
2022-10-19T06:48:57.020Z,101706.50
2022-10-19T06:51:25.597Z,101707.22
2022-10-19T06:53:57.109Z,101709.16
2022-10-19T06:56:26.922Z,101712.28
2022-10-19T06:58:54.399Z,101716.84
2022-10-19T07:01:21.618Z,101719.56
2022-10-19T07:03:50.815Z,101718.56
2022-10-19T07:06:20.200Z,101729.69
2022-10-19T07:08:47.042Z,101722.53
2022-10-19T07:11:22.414Z,101726.03
2022-10-19T07:13:49.325Z,101727.13
2022-10-19T07:16:20.979Z,101727.56
2022-10-19T07:18:49.646Z,101727.53
2022-10-19T07:21:17.288Z,101728.38
2022-10-19T07:23:45.442Z,101732.03
2022-10-19T07:26:15.886Z,101730.81
2022-10-19T07:28:45.212Z,101737.41
2022-10-19T07:31:14.109Z,101733.25
2022-10-19T07:33:49.505Z,101736.72
2022-10-19T07:36:16.493Z,101734.78
2022-10-19T07:38:45.093Z,101742.56
2022-10-19T07:41:14.985Z,101739.09
2022-10-19T07:43:43.680Z,101739.47
2022-10-19T07:46:33.977Z,101737.44
2022-10-19T07:49:04.138Z,101737.97
2022-10-19T07:51:31.353Z,101738.50
2022-10-19T07:53:59.377Z,101740.91
2022-10-19T07:56:27.425Z,101744.09
2022-10-19T07:58:55.830Z,101739.06
2022-10-19T08:01:29.771Z,101735.81
2022-10-19T08:06:48.389Z,101738.59
2022-10-19T08:09:47.194Z,101734.72
2022-10-19T08:12:14.590Z,101728.59
2022-10-19T08:14:44.502Z,101724.06
2022-10-19T08:17:17.664Z,101733.50
2022-10-19T08:19:47.235Z,101730.94
2022-10-19T08:22:19.519Z,101722.75
2022-10-19T08:24:46.497Z,101722.53
2022-10-19T08:27:14.953Z,101714.09
2022-10-19T08:29:47.258Z,101715.34
2022-10-19T08:32:23.061Z,101710.69
2022-10-19T08:34:49.760Z,101717.63
2022-10-19T08:37:25.829Z,101717.94
2022-10-19T08:40:03.911Z,101723.88
2022-10-19T08:42:50.966Z,101722.44
2022-10-19T08:48:30.119Z,101724.94
2022-10-19T08:50:58.682Z,101717.53
2022-10-19T08:53:37.437Z,101729.47
2022-10-19T08:56:51.708Z,101727.09
2022-10-19T08:59:46.534Z,101732.94
2022-10-19T09:02:24.687Z,101731.91
2022-10-19T09:05:00.649Z,101730.75
2022-10-19T09:07:31.025Z,101731.91
2022-10-19T09:10:02.444Z,101724.00
2022-10-19T09:12:58.846Z,101717.78
2022-10-19T09:15:49.898Z,101721.31
2022-10-19T09:18:22.495Z,101718.97
2022-10-19T09:20:55.319Z,101719.84
2022-10-19T09:23:27.500Z,101719.69
2022-10-19T09:25:56.331Z,101712.56
2022-10-19T09:28:44.239Z,101715.66
2022-10-19T09:31:22.557Z,101713.41
2022-10-19T09:33:55.661Z,101717.84
2022-10-19T09:36:39.307Z,101707.81
2022-10-19T09:39:12.776Z,101711.00
2022-10-19T09:42:07.774Z,101703.84
2022-10-19T09:44:37.683Z,101712.72
2022-10-19T09:47:36.419Z,101711.44
2022-10-19T09:50:23.646Z,101702.63
2022-10-19T09:52:55.281Z,101706.75
2022-10-19T09:56:00.712Z,101712.13
2022-10-19T09:58:33.245Z,101706.06
2022-10-19T10:01:00.913Z,101697.47
2022-10-19T10:03:33.336Z,101697.88
2022-10-19T10:06:08.753Z,101703.69
2022-10-19T10:08:46.974Z,101702.94
2022-10-19T10:11:33.677Z,101695.63
2022-10-19T10:14:09.142Z,101703.75
2022-10-19T10:16:36.772Z,101699.69
2022-10-19T10:19:06.967Z,101695.34
2022-10-19T10:21:55.626Z,101692.75
2022-10-19T10:24:24.577Z,101692.47
2022-10-19T10:26:53.805Z,101688.66
2022-10-19T10:29:33.155Z,101688.72
2022-10-19T10:32:13.514Z,101687.53
2022-10-19T10:35:02.141Z,101687.53
2022-10-19T10:37:47.855Z,101681.47
2022-10-19T10:40:24.738Z,101680.66
2022-10-19T10:42:53.897Z,101674.69
2022-10-19T10:45:29.234Z,101677.88
2022-10-19T10:47:58.255Z,101668.94
2022-10-19T10:50:31.694Z,101670.03
2022-10-19T10:53:27.733Z,101665.19
2022-10-19T10:55:57.595Z,101665.06
2022-10-19T10:58:55.066Z,101665.28
2022-10-19T11:01:29.806Z,101650.81
2022-10-19T11:04:01.336Z,101653.59
2022-10-19T11:06:27.896Z,101662.88
2022-10-19T11:09:08.312Z,101649.81
2022-10-19T11:11:43.238Z,101650.41
2022-10-19T11:14:28.388Z,101643.66
2022-10-19T11:16:59.762Z,101649.22
2022-10-19T11:19:35.096Z,101644.09
2022-10-19T11:22:21.252Z,101634.44
2022-10-19T11:25:19.265Z,101631.63
2022-10-19T11:28:01.014Z,101631.84
2022-10-19T11:30:32.821Z,101620.78
2022-10-19T11:33:05.499Z,101626.75
2022-10-19T11:35:45.855Z,101614.66
2022-10-19T11:38:24.165Z,101608.81
2022-10-19T11:41:18.671Z,101617.47
2022-10-19T11:43:51.473Z,101613.84
2022-10-19T11:46:28.554Z,101599.56
2022-10-19T11:49:09.288Z,101595.47
2022-10-19T11:52:03.650Z,101594.88
2022-10-19T11:54:35.739Z,101589.75
2022-10-19T11:57:26.160Z,101581.78
2022-10-19T12:00:14.134Z,101577.31
2022-10-19T12:03:44.787Z,101579.84
2022-10-19T12:06:43.005Z,101570.59
2022-10-19T12:09:09.464Z,101567.34
2022-10-19T12:11:54.511Z,101564.16
2022-10-19T12:14:26.104Z,101571.53
2022-10-19T12:16:58.604Z,101564.28
2022-10-19T12:19:30.187Z,101562.19
2022-10-19T12:22:01.925Z,101563.03
2022-10-19T12:24:29.843Z,101557.03
2022-10-19T12:26:57.753Z,101552.56
2022-10-19T12:29:28.363Z,101545.63
2022-10-19T12:31:57.331Z,101546.59
2022-10-19T12:34:37.115Z,101545.22
2022-10-19T12:37:12.933Z,101548.38
2022-10-19T12:40:01.011Z,101538.38
2022-10-19T12:42:42.722Z,101540.38
2022-10-19T12:45:30.487Z,101542.41
2022-10-19T12:48:08.957Z,101539.09
2022-10-19T12:50:53.954Z,101532.66
2022-10-19T12:53:40.654Z,101530.13
2022-10-19T12:56:10.144Z,101526.75
2022-10-19T12:58:44.963Z,101527.75
2022-10-19T13:01:28.222Z,101521.00
2022-10-19T13:04:15.284Z,101510.69
2022-10-19T13:06:45.098Z,101509.84
2022-10-19T13:09:41.905Z,101499.38
2022-10-19T13:12:21.920Z,101502.31
2022-10-19T13:14:56.056Z,101496.28
2022-10-19T13:17:35.109Z,101494.63
2022-10-19T13:20:14.357Z,101498.25
2022-10-19T13:22:49.023Z,101487.59
2022-10-19T13:25:40.691Z,101489.59
2022-10-19T13:28:13.018Z,101490.06
2022-10-19T13:30:39.567Z,101494.97
2022-10-19T13:33:31.689Z,101484.00
2022-10-19T13:36:02.338Z,101495.03
2022-10-19T13:38:31.989Z,101489.22
2022-10-19T13:41:04.427Z,101475.69
2022-10-19T13:43:55.518Z,101476.84
2022-10-19T13:46:26.877Z,101468.44
2022-10-19T13:49:02.540Z,101470.66
2022-10-19T13:51:55.333Z,101465.13
2022-10-19T13:55:04.081Z,101471.47
2022-10-19T13:57:42.461Z,101461.41
2022-10-19T14:00:15.336Z,101463.78
2022-10-19T14:03:12.025Z,101458.94
2022-10-19T14:05:41.641Z,101463.00
2022-10-19T14:08:32.816Z,101462.75
2022-10-19T14:11:07.857Z,101456.19
2022-10-19T14:13:34.996Z,101458.91
2022-10-19T14:16:09.910Z,101449.31
2022-10-19T14:18:39.221Z,101445.66
2022-10-19T14:21:09.568Z,101441.75
2022-10-19T14:23:41.781Z,101443.75
2022-10-19T14:26:21.967Z,101441.56
2022-10-19T14:29:04.076Z,101445.88
2022-10-19T14:31:37.270Z,101439.19
2022-10-19T14:34:08.859Z,101440.91
2022-10-19T14:36:39.131Z,101449.00
2022-10-19T14:39:07.569Z,101431.75
2022-10-19T14:41:37.255Z,101430.28
2022-10-19T14:44:36.397Z,101424.44
2022-10-19T14:47:15.996Z,101425.31
2022-10-19T14:49:42.583Z,101426.31
2022-10-19T14:52:13.831Z,101427.97
2022-10-19T14:54:45.698Z,101425.69
2022-10-19T14:57:27.458Z,101425.06
2022-10-19T15:00:04.092Z,101430.28
2022-10-19T15:02:32.798Z,101421.97
2022-10-19T15:05:03.046Z,101412.94
2022-10-19T15:07:39.702Z,101411.69
2022-10-19T15:10:35.975Z,101417.91
2022-10-19T15:13:06.428Z,101409.16
2022-10-19T15:15:35.643Z,101411.84
2022-10-19T15:18:02.333Z,101403.91
2022-10-19T15:20:49.140Z,101400.69
2022-10-19T15:23:45.994Z,101407.09
2022-10-19T15:26:27.183Z,101413.56
2022-10-19T15:28:55.281Z,101408.28
2022-10-19T15:31:26.880Z,101406.53
2022-10-19T15:34:00.794Z,101404.66
2022-10-19T15:36:29.721Z,101405.00
2022-10-19T15:39:17.998Z,101411.31
2022-10-19T15:41:52.349Z,101414.31
2022-10-19T15:44:55.127Z,101421.91
2022-10-19T15:47:24.276Z,101409.84
2022-10-19T15:49:56.208Z,101410.28
2022-10-19T15:52:28.133Z,101416.38
2022-10-19T15:54:57.758Z,101416.03
2022-10-19T15:57:34.721Z,101419.56
2022-10-19T16:00:25.050Z,101411.88
2022-10-19T16:02:51.694Z,101408.69
2022-10-19T16:05:28.810Z,101406.22
2022-10-19T16:07:55.667Z,101399.03
2022-10-19T16:10:27.855Z,101401.72
2022-10-19T16:12:54.543Z,101401.97
2022-10-19T16:15:26.958Z,101393.69
2022-10-19T16:17:56.260Z,101403.81
2022-10-19T16:20:27.621Z,101401.72
2022-10-19T16:22:56.916Z,101399.25
2022-10-19T16:25:23.930Z,101401.09
2022-10-19T16:27:50.905Z,101399.72
2022-10-19T16:30:17.814Z,101390.72
2022-10-19T16:32:45.805Z,101403.59
2022-10-19T16:35:15.755Z,101400.94
2022-10-19T16:37:42.355Z,101406.63
2022-10-19T16:40:10.580Z,101409.31
2022-10-19T16:42:37.654Z,101416.16
2022-10-19T16:45:06.662Z,101419.41
2022-10-19T16:47:33.243Z,101415.84
2022-10-19T16:50:04.403Z,101420.13
2022-10-19T16:52:33.217Z,101422.63
2022-10-19T16:55:00.415Z,101425.19
2022-10-19T16:57:26.960Z,101423.44
2022-10-19T16:59:58.972Z,101435.28
2022-10-19T17:02:26.287Z,101432.09
2022-10-19T17:04:53.142Z,101427.66
2022-10-19T17:07:19.674Z,101425.84
2022-10-19T17:09:52.292Z,101435.59
2022-10-19T17:12:23.143Z,101427.44
2022-10-19T17:14:51.288Z,101440.66
2022-10-19T17:17:36.983Z,101442.97
2022-10-19T17:20:04.050Z,101447.94
2022-10-19T17:22:30.688Z,101450.63
2022-10-19T17:24:57.344Z,101456.44
2022-10-19T17:27:31.274Z,101448.41
2022-10-19T17:29:58.106Z,101458.81
2022-10-19T17:32:24.811Z,101454.78
2022-10-19T17:34:57.963Z,101453.31
2022-10-19T17:37:25.708Z,101449.91
2022-10-19T17:39:55.440Z,101453.63
2022-10-19T17:42:28.171Z,101448.69
2022-10-19T17:44:54.954Z,101454.88
2022-10-19T17:47:24.651Z,101451.28
2022-10-19T17:49:51.278Z,101450.13
2022-10-19T17:52:18.123Z,101457.13
2022-10-19T17:54:54.651Z,101455.31
2022-10-19T17:57:31.293Z,101466.03
2022-10-19T17:59:58.334Z,101468.97
2022-10-19T18:02:27.325Z,101464.03
2022-10-19T18:04:53.953Z,101458.16
2022-10-19T18:07:22.104Z,101459.72
2022-10-19T18:09:48.712Z,101456.44
2022-10-19T18:12:18.023Z,101463.06
2022-10-19T18:14:45.228Z,101461.72
2022-10-19T18:17:12.194Z,101464.03
2022-10-19T18:19:41.081Z,101466.19
2022-10-19T18:22:08.823Z,101467.72
2022-10-19T18:24:41.014Z,101465.31
2022-10-19T18:27:10.188Z,101468.56
2022-10-19T18:29:36.838Z,101465.72
2022-10-19T18:34:32.972Z,101468.00
2022-10-19T18:37:00.644Z,101469.44
2022-10-19T18:39:27.426Z,101475.81
2022-10-19T18:41:56.957Z,101480.16
2022-10-19T18:44:33.770Z,101471.97
2022-10-19T18:47:02.682Z,101475.28
2022-10-19T18:49:32.396Z,101476.66
2022-10-19T18:51:59.009Z,101469.38
2022-10-19T18:54:29.197Z,101473.88
2022-10-19T18:56:55.846Z,101470.97
2022-10-19T18:59:31.183Z,101477.00
2022-10-19T19:01:57.819Z,101466.72
2022-10-19T19:04:24.404Z,101474.75
2022-10-19T19:06:52.408Z,101473.91
2022-10-19T19:09:19.592Z,101476.03
2022-10-19T19:11:46.280Z,101480.66
2022-10-19T19:14:18.813Z,101479.84
2022-10-19T19:16:46.055Z,101477.94
2022-10-19T19:19:15.086Z,101480.22
2022-10-19T19:21:44.887Z,101480.66
2022-10-19T19:24:18.143Z,101480.72
2022-10-19T19:26:52.450Z,101475.56
2022-10-19T19:29:20.740Z,101480.41
2022-10-19T19:31:48.532Z,101484.97
2022-10-19T19:34:16.537Z,101486.03
2022-10-19T19:36:48.401Z,101482.53
2022-10-19T19:39:18.773Z,101488.69
2022-10-19T19:41:46.157Z,101492.41
2022-10-19T19:44:12.987Z,101479.94
2022-10-19T19:46:39.564Z,101488.72
2022-10-19T19:49:07.438Z,101492.06
2022-10-19T19:51:34.638Z,101486.19
2022-10-19T19:54:01.652Z,101496.09
2022-10-19T19:56:31.114Z,101493.84
2022-10-19T19:59:00.057Z,101504.09
2022-10-19T20:01:27.279Z,101497.25
2022-10-19T20:03:53.992Z,101501.53
2022-10-19T20:06:23.666Z,101498.03
2022-10-19T20:08:54.867Z,101502.59
2022-10-19T20:11:24.381Z,101500.94
2022-10-19T20:13:51.416Z,101510.25
2022-10-19T20:16:22.795Z,101506.09
2022-10-19T20:18:57.041Z,101502.25
2022-10-19T20:21:25.648Z,101510.06
2022-10-19T20:23:52.248Z,101507.59
2022-10-19T20:26:23.483Z,101505.72
2022-10-19T20:28:50.694Z,101509.66
2022-10-19T20:31:17.867Z,101503.53
2022-10-19T20:33:47.302Z,101507.88
2022-10-19T20:36:22.638Z,101509.09
2022-10-19T20:38:55.598Z,101515.06
2022-10-19T20:41:28.696Z,101513.38
2022-10-19T20:43:56.222Z,101521.38
2022-10-19T20:46:28.628Z,101518.16
2022-10-19T20:48:58.568Z,101515.69
2022-10-19T20:51:36.878Z,101515.91
2022-10-19T20:54:07.009Z,101511.41
2022-10-19T20:56:42.458Z,101516.09
2022-10-19T20:59:14.812Z,101519.41
2022-10-19T21:01:49.927Z,101513.00
2022-10-19T21:04:16.933Z,101506.84
2022-10-19T21:06:46.042Z,101509.94
2022-10-19T21:09:16.277Z,101508.66
2022-10-19T21:11:47.468Z,101502.94
2022-10-19T21:14:17.011Z,101511.56
2022-10-19T21:16:43.728Z,101508.88
2022-10-19T21:19:23.972Z,101509.72
2022-10-19T21:21:55.597Z,101505.03
2022-10-19T21:24:30.306Z,101505.44
2022-10-19T21:27:07.660Z,101505.66
2022-10-19T21:29:34.794Z,101509.38
2022-10-19T21:32:05.698Z,101511.00
2022-10-19T21:34:32.723Z,101513.50
2022-10-19T21:36:59.698Z,101521.31
2022-10-19T21:39:32.255Z,101519.88
2022-10-19T21:41:58.866Z,101519.66
2022-10-19T21:44:25.501Z,101521.31
2022-10-19T21:46:52.180Z,101516.56
2022-10-19T21:49:22.630Z,101525.81
2022-10-19T21:51:51.826Z,101530.94
2022-10-19T21:54:21.265Z,101535.47
2022-10-19T21:56:48.565Z,101534.03
2022-10-19T21:59:20.369Z,101529.94
2022-10-19T22:01:47.021Z,101536.09
2022-10-19T22:04:16.314Z,101534.44
2022-10-19T22:06:43.811Z,101542.44
2022-10-19T22:09:17.616Z,101529.75
2022-10-19T22:11:44.861Z,101530.13
2022-10-19T22:14:13.305Z,101523.78
2022-10-19T22:16:46.054Z,101530.53
2022-10-19T22:19:29.413Z,101529.94
2022-10-19T22:21:55.994Z,101527.06
2022-10-19T22:24:22.596Z,101523.78
2022-10-19T22:26:50.807Z,101528.47
2022-10-19T22:29:22.687Z,101530.56
2022-10-19T22:31:49.147Z,101525.19
2022-10-19T22:34:16.829Z,101531.81
2022-10-19T22:36:44.654Z,101529.53
2022-10-19T22:39:11.354Z,101527.88
2022-10-19T22:41:43.550Z,101524.81
2022-10-19T22:44:10.258Z,101528.31
2022-10-19T22:46:36.817Z,101523.38
2022-10-19T22:49:03.986Z,101521.09
2022-10-19T22:51:30.606Z,101527.69
2022-10-19T22:54:00.249Z,101532.41
2022-10-19T22:56:45.257Z,101530.34
2022-10-19T22:59:11.811Z,101529.31
2022-10-19T23:01:41.158Z,101537.31
2022-10-19T23:04:13.787Z,101531.59
2022-10-19T23:06:42.092Z,101539.16
2022-10-19T23:09:09.653Z,101536.50
2022-10-19T23:11:38.991Z,101535.09
2022-10-19T23:14:05.789Z,101532.81
2022-10-19T23:16:33.771Z,101537.31
2022-10-19T23:19:00.449Z,101541.44
2022-10-19T23:21:27.190Z,101548.63
2022-10-19T23:23:59.281Z,101547.78
2022-10-19T23:26:26.248Z,101548.81
2022-10-19T23:28:53.322Z,101551.28
2022-10-19T23:31:27.005Z,101541.44
2022-10-19T23:33:53.992Z,101555.38
2022-10-19T23:36:23.789Z,101552.94
2022-10-19T23:38:52.073Z,101550.88
2022-10-19T23:41:19.396Z,101558.66
2022-10-19T23:43:48.264Z,101567.09
2022-10-19T23:46:15.056Z,101554.97
2022-10-19T23:48:42.195Z,101557.63
2022-10-19T23:51:14.929Z,101551.69
2022-10-19T23:53:43.774Z,101558.22
2022-10-19T23:56:13.622Z,101561.91
2022-10-19T23:58:40.357Z,101561.91
